Time;durP1;ratioP1;P1;durP2;ratioP2;P2;SDS_P1;SDS_P2;PMS_P1;PMS_P2;Temp;Humidity;BMP_temperature;BMP_pressure;BME280_temperature;BME280_humidity;BME280_pressure;Samples;Min_cycle;Max_cycle;Signal;HPM_P1;HPM_P2
2021/06/25 00:09:09;;;;;;;3.83;2.28;;;21.20;64.80;;;;;;20726493;28;20038;-73
2021/06/25 00:19:10;;;;;;;2.28;1.80;;;21.20;64.80;;;;;;20741828;28;20046;-75
2021/06/25 00:29:10;;;;;;;3.13;2.33;;;21.20;64.70;;;;;;20725436;28;20457;-74
2021/06/25 00:39:11;;;;;;;2.65;2.13;;;21.20;64.70;;;;;;20724740;28;20112;-73
2021/06/25 00:49:12;;;;;;;3.75;2.55;;;21.20;64.70;;;;;;20739912;28;20041;-73
2021/06/25 00:59:12;;;;;;;3.25;2.25;;;21.20;64.70;;;;;;20723470;28;20492;-74
2021/06/25 01:09:13;;;;;;;2.97;2.40;;;21.30;64.80;;;;;;20723020;28;20494;-73
2021/06/25 01:19:14;;;;;;;2.88;1.80;;;21.20;64.70;;;;;;20722916;28;20125;-73
2021/06/25 01:29:14;;;;;;;2.17;1.98;;;21.20;64.70;;;;;;20738487;28;20746;-74
2021/06/25 01:39:15;;;;;;;2.20;2.00;;;21.10;64.60;;;;;;20721689;28;20184;-74
2021/06/25 01:49:16;;;;;;;2.33;2.13;;;21.10;64.60;;;;;;20721387;28;20030;-74
2021/06/25 01:59:16;;;;;;;3.17;1.98;;;21.10;64.60;;;;;;20722490;28;20064;-73
2021/06/25 02:09:17;;;;;;;2.33;2.00;;;21.10;64.60;;;;;;20736072;28;20133;-76
2021/06/25 02:19:17;;;;;;;2.33;1.90;;;21.10;64.60;;;;;;20734729;28;20068;-74
2021/06/25 02:29:18;;;;;;;2.28;2.08;;;21.10;64.50;;;;;;20735063;28;20437;-74
2021/06/25 02:39:19;;;;;;;2.35;2.03;;;21.20;64.60;;;;;;20749930;28;20050;-74
2021/06/25 02:49:20;;;;;;;2.83;2.03;;;21.10;64.50;;;;;;20749338;28;20030;-73
2021/06/25 02:59:20;;;;;;;3.03;2.10;;;21.10;64.50;;;;;;20733125;28;20042;-73
2021/06/25 03:09:21;;;;;;;4.25;1.95;;;21.00;64.40;;;;;;20731349;28;20315;-74
2021/06/25 03:19:21;;;;;;;2.43;2.10;;;21.00;64.50;;;;;;20730757;28;20076;-74
2021/06/25 03:29:22;;;;;;;4.10;2.28;;;21.00;64.50;;;;;;20746477;28;20497;-74
2021/06/25 03:39:23;;;;;;;2.53;2.13;;;21.00;64.40;;;;;;20729287;28;20556;-73
2021/06/25 03:49:24;;;;;;;2.92;2.17;;;21.00;64.40;;;;;;20729739;28;20045;-74
2021/06/25 03:59:25;;;;;;;3.20;2.28;;;21.00;64.40;;;;;;20744199;28;20043;-74
2021/06/25 04:09:25;;;;;;;2.05;1.65;;;21.00;64.40;;;;;;20743717;28;20369;-74
2021/06/25 04:19:26;;;;;;;3.08;2.15;;;21.00;64.40;;;;;;20727532;28;20066;-73
2021/06/25 04:29:27;;;;;;;4.30;2.55;;;21.00;64.40;;;;;;20725442;28;20116;-73
2021/06/25 04:39:27;;;;;;;3.03;2.27;;;21.00;64.40;;;;;;20725040;28;20038;-75
2021/06/25 04:49:28;;;;;;;2.65;1.75;;;21.00;64.40;;;;;;20692364;28;20178;-73
2021/06/25 04:59:29;;;;;;;1.80;1.70;;;21.00;64.30;;;;;;20642140;28;20053;-77
2021/06/25 05:09:30;;;;;;;2.45;2.03;;;21.00;64.30;;;;;;20660600;28;20085;-75
2021/06/25 05:19:31;;;;;;;2.95;2.15;;;21.00;65.00;;;;;;20683897;28;20038;-75
2021/06/25 05:29:31;;;;;;;2.58;1.85;;;20.90;64.30;;;;;;20697135;28;20455;-77
2021/06/25 05:39:32;;;;;;;3.17;1.70;;;21.00;64.30;;;;;;20681578;28;20030;-74
2021/06/25 05:49:33;;;;;;;3.50;2.17;;;21.00;64.30;;;;;;20609358;28;20582;-74
2021/06/25 05:59:34;;;;;;;2.85;1.95;;;21.00;64.30;;;;;;20671285;28;20396;-74
2021/06/25 06:09:34;;;;;;;2.17;1.80;;;20.90;64.30;;;;;;20654819;28;20542;-76
2021/06/25 06:19:40;;;;;;;1.88;1.65;;;20.90;64.20;;;;;;20690426;28;20117;-75
2021/06/25 06:40:00;;;;;;;1.70;1.23;;;21.00;64.30;;;;;;20668641;28;20283;-75
2021/06/25 06:50:01;;;;;;;3.17;1.95;;;21.00;64.20;;;;;;20685359;28;20073;-73
2021/06/25 07:00:04;;;;;;;1.90;1.50;;;21.00;64.20;;;;;;20718760;28;20043;-73
2021/06/25 07:10:06;;;;;;;1.52;1.40;;;21.00;64.20;;;;;;20676061;28;20049;-75
2021/06/25 07:20:07;;;;;;;2.40;1.53;;;21.00;64.10;;;;;;20672578;28;1210575;-74
2021/06/25 07:30:08;;;;;;;2.38;1.75;;;21.00;64.10;;;;;;20700434;28;20813;-73
2021/06/25 07:40:10;;;;;;;1.95;1.67;;;21.00;64.00;;;;;;20649061;28;20198;-74
2021/06/25 07:50:13;;;;;;;1.90;1.60;;;21.00;64.00;;;;;;20659481;28;20069;-76
2021/06/25 08:00:14;;;;;;;1.70;1.60;;;21.00;64.00;;;;;;20647197;28;20038;-74
2021/06/25 08:10:16;;;;;;;2.95;1.70;;;21.00;64.00;;;;;;20718697;28;20501;-76
2021/06/25 08:20:17;;;;;;;1.52;1.15;;;21.00;64.00;;;;;;20684040;28;20176;-76
2021/06/25 08:30:24;;;;;;;2.53;1.73;;;21.00;64.00;;;;;;20700536;28;20049;-76
2021/06/25 08:40:25;;;;;;;2.30;1.60;;;21.00;64.00;;;;;;20714571;28;20297;-76
2021/06/25 08:50:25;;;;;;;2.27;2.07;;;21.00;64.00;;;;;;20718737;28;20044;-74
2021/06/25 09:00:26;;;;;;;3.30;2.00;;;21.00;63.90;;;;;;20677611;28;20432;-77
2021/06/25 09:10:37;;;;;;;2.13;1.75;;;21.00;63.90;;;;;;20718771;28;20045;-76
2021/06/25 09:20:42;;;;;;;2.10;1.75;;;21.00;63.90;;;;;;21019978;23;20053;-75
2021/06/25 09:30:43;;;;;;;2.28;1.73;;;21.00;63.90;;;;;;20714837;28;20062;-78
2021/06/25 09:40:44;;;;;;;2.55;1.90;;;21.10;63.90;;;;;;20684957;28;20100;-73
2021/06/25 09:50:46;;;;;;;2.00;1.80;;;21.10;63.90;;;;;;20707404;28;20724;-71
2021/06/25 10:11:18;;;;;;;1.98;1.40;;;21.20;63.80;;;;;;20720716;28;20462;-72
2021/06/25 10:21:21;;;;;;;2.22;1.63;;;21.20;63.70;;;;;;20747963;28;20045;-71
2021/06/25 10:31:23;;;;;;;5.15;2.30;;;21.30;63.60;;;;;;20742393;28;20441;-73
2021/06/25 10:41:24;;;;;;;3.53;1.98;;;21.30;63.40;;;;;;20735739;28;20069;-75
2021/06/25 10:51:26;;;;;;;2.63;2.37;;;21.30;63.30;;;;;;20735043;28;20121;-73
2021/06/25 11:01:45;;;;;;;5.30;2.08;;;21.30;63.10;;;;;;20740521;28;20384;-73
2021/06/25 11:11:46;;;;;;;3.88;1.90;;;21.30;63.10;;;;;;20740863;28;20450;-76
2021/06/25 11:21:47;;;;;;;3.35;1.70;;;21.30;63.10;;;;;;20723508;28;20056;-74
2021/06/25 11:31:47;;;;;;;3.67;2.40;;;21.30;63.20;;;;;;20747621;28;20045;-72
2021/06/25 11:41:52;;;;;;;7.07;2.90;;;21.40;63.40;;;;;;20775522;28;20096;-72
2021/06/25 11:51:53;;;;;;;3.63;2.87;;;21.30;63.20;;;;;;20655731;28;20297;-73
2021/06/25 12:01:55;;;;;;;4.10;2.67;;;21.30;63.10;;;;;;20705824;28;20037;-75
2021/06/25 12:11:56;;;;;;;3.92;2.63;;;21.30;63.20;;;;;;20711317;28;20490;-74
2021/06/25 12:22:08;;;;;;;9.13;4.07;;;21.30;63.20;;;;;;20745201;28;20050;-74
2021/06/25 12:32:18;;;;;;;5.07;3.67;;;21.20;63.30;;;;;;20694132;28;20044;-74
2021/06/25 12:42:20;;;;;;;3.40;3.10;;;21.20;63.20;;;;;;20775977;28;20034;-76
2021/06/25 12:52:24;;;;;;;5.07;4.20;;;21.20;63.20;;;;;;20723825;28;20133;-76
2021/06/25 13:02:24;;;;;;;4.07;3.22;;;21.20;63.40;;;;;;20708613;28;20038;-75
2021/06/25 13:12:25;;;;;;;4.05;3.17;;;21.20;63.50;;;;;;20714618;28;20091;-73
2021/06/25 13:22:43;;;;;;;3.65;2.42;;;21.20;63.50;;;;;;20701391;28;20050;-72
2021/06/25 13:32:51;;;;;;;3.90;2.90;;;21.20;63.50;;;;;;20704517;28;20117;-73
2021/06/25 13:43:11;;;;;;;4.13;2.88;;;21.30;63.40;;;;;;20737797;28;20030;-74
2021/06/25 13:53:33;;;;;;;3.20;2.70;;;21.30;63.30;;;;;;20687676;28;20048;-72
2021/06/25 14:03:34;;;;;;;3.17;2.28;;;21.40;63.20;;;;;;20734097;28;20091;-73
2021/06/25 14:13:35;;;;;;;5.35;2.75;;;21.40;63.20;;;;;;20736719;28;20088;-73
2021/06/25 14:23:36;;;;;;;2.60;2.28;;;21.40;63.10;;;;;;20735561;28;20052;-73
2021/06/25 14:33:36;;;;;;;2.78;2.15;;;21.50;63.00;;;;;;20735533;28;20105;-74
2021/06/25 14:43:37;;;;;;;3.15;2.67;;;21.50;62.90;;;;;;20733711;28;20045;-74
2021/06/25 14:53:38;;;;;;;3.73;2.80;;;21.70;62.90;;;;;;20732879;28;20088;-74
2021/06/25 15:03:38;;;;;;;3.55;2.58;;;21.50;62.80;;;;;;20716075;28;20038;-73
2021/06/25 15:13:39;;;;;;;2.95;2.55;;;21.60;62.90;;;;;;20714929;28;20061;-76
2021/06/25 15:23:39;;;;;;;3.53;2.37;;;21.50;62.90;;;;;;20745547;28;20404;-77
2021/06/25 15:33:40;;;;;;;3.97;2.63;;;21.50;62.90;;;;;;20797414;28;20289;-75
2021/06/25 15:43:41;;;;;;;3.38;2.75;;;21.50;62.80;;;;;;20794871;28;20349;-77
2021/06/25 15:53:41;;;;;;;3.03;2.43;;;21.50;62.80;;;;;;20762032;28;20091;-72
2021/06/25 16:03:42;;;;;;;3.40;2.83;;;21.60;62.90;;;;;;20717603;28;20303;-85
2021/06/25 16:13:43;;;;;;;3.92;2.80;;;21.70;62.70;;;;;;20719561;28;20081;-83
2021/06/25 16:23:44;;;;;;;4.88;3.35;;;21.80;62.60;;;;;;20714884;28;20069;-77
2021/06/25 16:33:46;;;;;;;7.10;2.63;;;21.70;62.60;;;;;;20710693;28;20037;-78
2021/06/25 16:43:47;;;;;;;4.22;2.70;;;21.70;62.80;;;;;;20695368;28;20503;-81
2021/06/25 16:53:49;;;;;;;2.77;2.40;;;21.70;62.80;;;;;;20696030;28;20037;-78
2021/06/25 17:03:50;;;;;;;3.08;2.70;;;21.80;63.00;;;;;;20693626;28;20383;-77
2021/06/25 17:13:53;;;;;;;3.05;2.40;;;21.70;62.90;;;;;;20660809;28;20038;-77
2021/06/25 17:23:57;;;;;;;3.25;2.85;;;21.80;62.80;;;;;;20645517;28;20046;-78
2021/06/25 17:33:58;;;;;;;3.63;2.87;;;21.90;62.60;;;;;;20682155;28;20395;-78
2021/06/25 17:44:01;;;;;;;3.40;3.10;;;22.00;62.50;;;;;;20726301;28;20030;-79
2021/06/25 17:54:03;;;;;;;3.97;2.97;;;22.10;62.30;;;;;;20723685;28;20069;-79
2021/06/25 18:04:11;;;;;;;3.63;2.92;;;22.00;62.20;;;;;;20706006;28;20101;-78
2021/06/25 18:14:14;;;;;;;3.42;2.70;;;22.10;62.20;;;;;;20714639;28;20050;-79
2021/06/25 18:24:14;;;;;;;3.38;2.67;;;22.10;62.20;;;;;;20708194;28;20102;-77
2021/06/25 18:34:19;;;;;;;3.58;2.50;;;22.00;62.20;;;;;;20708420;28;20063;-78
2021/06/25 18:44:20;;;;;;;;;;;22.00;62.40;;;;;;20737480;28;20080;-78
2021/06/25 18:54:21;;;;;;;3.72;3.22;;;22.00;62.60;;;;;;20721218;28;19953;-79
2021/06/25 19:04:24;;;;;;;3.22;2.92;;;22.00;62.80;;;;;;20705191;28;20050;-78
2021/06/25 19:14:25;;;;;;;2.70;2.22;;;21.90;62.80;;;;;;20638711;28;20030;-73
2021/06/25 19:24:25;;;;;;;3.53;3.03;;;21.80;62.90;;;;;;20647412;28;20591;-77
2021/06/25 19:34:27;;;;;;;4.15;2.58;;;21.80;63.10;;;;;;20805084;28;20280;-75
2021/06/25 19:44:28;;;;;;;3.35;2.40;;;21.70;63.90;;;;;;20793635;28;20059;-75
2021/06/25 19:54:28;;;;;;;2.95;2.63;;;21.70;63.40;;;;;;20804862;28;20033;-74
2021/06/25 20:04:29;;;;;;;3.47;2.88;;;21.70;63.40;;;;;;20757179;28;20038;-74
2021/06/25 20:14:30;;;;;;;3.13;2.45;;;21.70;63.50;;;;;;20683267;28;20045;-71
2021/06/25 20:24:30;;;;;;;2.83;2.53;;;21.60;63.50;;;;;;20708877;28;20489;-71
2021/06/25 20:34:31;;;;;;;4.20;3.78;;;21.60;63.60;;;;;;20688969;28;20703;-71
2021/06/25 20:44:32;;;;;;;4.33;3.47;;;21.60;63.70;;;;;;20722110;28;20041;-71
2021/06/25 20:54:32;;;;;;;3.95;2.83;;;21.50;63.70;;;;;;20690288;28;20171;-71
2021/06/25 21:04:33;;;;;;;3.42;3.13;;;21.60;63.80;;;;;;20691448;28;20038;-72
2021/06/25 21:14:33;;;;;;;4.00;2.95;;;21.50;63.70;;;;;;20723569;28;20034;-72
2021/06/25 21:24:34;;;;;;;3.55;3.10;;;21.50;63.80;;;;;;20706327;28;20133;-71
2021/06/25 21:34:35;;;;;;;3.45;3.00;;;21.50;63.80;;;;;;20674091;28;20029;-71
2021/06/25 21:44:35;;;;;;;3.23;2.90;;;21.50;63.90;;;;;;20689676;28;20050;-71
2021/06/25 21:54:36;;;;;;;4.13;3.20;;;21.50;63.90;;;;;;20689433;28;20504;-72
2021/06/25 22:04:36;;;;;;;5.15;3.78;;;21.40;63.80;;;;;;20721459;28;20042;-71
2021/06/25 22:14:37;;;;;;;3.72;3.30;;;21.40;63.80;;;;;;20672227;28;20179;-71
2021/06/25 22:24:37;;;;;;;4.30;3.28;;;21.40;63.80;;;;;;20702594;28;20046;-72
2021/06/25 22:34:38;;;;;;;3.50;3.13;;;21.40;63.80;;;;;;20719069;28;20021;-71
2021/06/25 22:44:38;;;;;;;4.50;3.20;;;21.40;63.80;;;;;;20701965;28;20046;-71
2021/06/25 22:54:39;;;;;;;4.95;3.40;;;21.40;63.80;;;;;;20717439;28;20080;-72
2021/06/25 23:04:40;;;;;;;5.35;2.92;;;21.30;63.80;;;;;;20684531;28;20045;-72
2021/06/25 23:14:40;;;;;;;4.28;3.38;;;21.30;63.80;;;;;;20716554;28;20066;-71
2021/06/25 23:24:41;;;;;;;3.72;3.28;;;21.30;63.80;;;;;;20698905;28;20046;-71
2021/06/25 23:34:41;;;;;;;4.40;3.25;;;21.30;63.80;;;;;;20697751;28;20038;-71
2021/06/25 23:44:42;;;;;;;5.22;3.47;;;21.30;63.80;;;;;;20697296;28;20129;-72
2021/06/25 23:54:42;;;;;;;3.17;2.88;;;21.20;63.80;;;;;;20680364;28;20034;-72
